sensor_id;sensor_type;location;lat;lon;timestamp;P1;durP1;ratioP1;P2;durP2;ratioP2
6665;SDS011;3369;49.906;8.598;2024-03-06T00:01:16;6.87;;;6.27;;
6665;SDS011;3369;49.906;8.598;2024-03-06T00:03:41;5.80;;;5.30;;
6665;SDS011;3369;49.906;8.598;2024-03-06T00:06:07;6.28;;;5.68;;
6665;SDS011;3369;49.906;8.598;2024-03-06T00:08:32;6.63;;;5.80;;
6665;SDS011;3369;49.906;8.598;2024-03-06T00:10:58;6.47;;;5.87;;
6665;SDS011;3369;49.906;8.598;2024-03-06T00:13:24;6.63;;;6.03;;
6665;SDS011;3369;49.906;8.598;2024-03-06T00:15:49;6.55;;;5.85;;
6665;SDS011;3369;49.906;8.598;2024-03-06T00:18:15;6.38;;;5.82;;
6665;SDS011;3369;49.906;8.598;2024-03-06T00:20:40;6.40;;;5.73;;
6665;SDS011;3369;49.906;8.598;2024-03-06T00:23:07;6.57;;;5.97;;
6665;SDS011;3369;49.906;8.598;2024-03-06T00:25:32;6.40;;;5.80;;
6665;SDS011;3369;49.906;8.598;2024-03-06T00:27:59;6.10;;;5.60;;
6665;SDS011;3369;49.906;8.598;2024-03-06T00:30:25;6.25;;;5.75;;
6665;SDS011;3369;49.906;8.598;2024-03-06T00:32:51;6.10;;;5.50;;
6665;SDS011;3369;49.906;8.598;2024-03-06T00:35:16;6.40;;;5.80;;
6665;SDS011;3369;49.906;8.598;2024-03-06T00:37:42;6.30;;;5.80;;
6665;SDS011;3369;49.906;8.598;2024-03-06T00:40:08;6.97;;;6.27;;
6665;SDS011;3369;49.906;8.598;2024-03-06T00:42:33;6.70;;;6.10;;
6665;SDS011;3369;49.906;8.598;2024-03-06T00:45:00;6.47;;;5.88;;
6665;SDS011;3369;49.906;8.598;2024-03-06T00:47:27;6.45;;;5.85;;
6665;SDS011;3369;49.906;8.598;2024-03-06T00:49:52;6.43;;;5.82;;
6665;SDS011;3369;49.906;8.598;2024-03-06T00:52:18;6.30;;;5.70;;
6665;SDS011;3369;49.906;8.598;2024-03-06T00:54:44;6.63;;;6.03;;
6665;SDS011;3369;49.906;8.598;2024-03-06T00:57:09;6.03;;;5.53;;
6665;SDS011;3369;49.906;8.598;2024-03-06T00:59:35;6.28;;;5.78;;
6665;SDS011;3369;49.906;8.598;2024-03-06T01:02:01;6.60;;;6.00;;
6665;SDS011;3369;49.906;8.598;2024-03-06T01:04:27;6.60;;;6.00;;
6665;SDS011;3369;49.906;8.598;2024-03-06T01:06:53;6.60;;;5.90;;
6665;SDS011;3369;49.906;8.598;2024-03-06T01:09:19;5.60;;;5.10;;
6665;SDS011;3369;49.906;8.598;2024-03-06T01:11:45;6.05;;;5.45;;
6665;SDS011;3369;49.906;8.598;2024-03-06T01:14:12;7.20;;;6.50;;
6665;SDS011;3369;49.906;8.598;2024-03-06T01:16:38;7.37;;;6.67;;
6665;SDS011;3369;49.906;8.598;2024-03-06T01:19:04;7.13;;;6.37;;
6665;SDS011;3369;49.906;8.598;2024-03-06T01:21:29;6.87;;;6.27;;
6665;SDS011;3369;49.906;8.598;2024-03-06T01:23:55;7.35;;;6.65;;
6665;SDS011;3369;49.906;8.598;2024-03-06T01:26:21;7.10;;;6.40;;
6665;SDS011;3369;49.906;8.598;2024-03-06T01:28:46;7.22;;;6.53;;
6665;SDS011;3369;49.906;8.598;2024-03-06T01:31:12;6.60;;;6.00;;
6665;SDS011;3369;49.906;8.598;2024-03-06T01:33:38;6.80;;;6.20;;
6665;SDS011;3369;49.906;8.598;2024-03-06T01:36:03;6.68;;;6.07;;
6665;SDS011;3369;49.906;8.598;2024-03-06T01:38:29;7.43;;;6.72;;
6665;SDS011;3369;49.906;8.598;2024-03-06T01:40:55;6.73;;;6.03;;
6665;SDS011;3369;49.906;8.598;2024-03-06T01:43:22;6.47;;;5.88;;
6665;SDS011;3369;49.906;8.598;2024-03-06T01:45:49;7.10;;;6.40;;
6665;SDS011;3369;49.906;8.598;2024-03-06T01:48:20;6.13;;;5.53;;
6665;SDS011;3369;49.906;8.598;2024-03-06T01:50:53;6.53;;;5.97;;
6665;SDS011;3369;49.906;8.598;2024-03-06T01:53:21;6.63;;;6.03;;
6665;SDS011;3369;49.906;8.598;2024-03-06T01:55:47;7.00;;;6.30;;
6665;SDS011;3369;49.906;8.598;2024-03-06T01:58:13;5.78;;;5.28;;
6665;SDS011;3369;49.906;8.598;2024-03-06T02:00:39;5.63;;;5.20;;
6665;SDS011;3369;49.906;8.598;2024-03-06T02:03:05;5.75;;;5.15;;
6665;SDS011;3369;49.906;8.598;2024-03-06T02:05:31;5.00;;;4.50;;
6665;SDS011;3369;49.906;8.598;2024-03-06T02:07:58;4.72;;;4.32;;
6665;SDS011;3369;49.906;8.598;2024-03-06T02:10:24;4.75;;;4.35;;
6665;SDS011;3369;49.906;8.598;2024-03-06T02:12:52;4.25;;;3.95;;
6665;SDS011;3369;49.906;8.598;2024-03-06T02:15:18;4.40;;;4.05;;
6665;SDS011;3369;49.906;8.598;2024-03-06T02:17:44;3.83;;;3.53;;
6665;SDS011;3369;49.906;8.598;2024-03-06T02:20:10;4.10;;;3.80;;
6665;SDS011;3369;49.906;8.598;2024-03-06T02:22:38;4.95;;;4.45;;
6665;SDS011;3369;49.906;8.598;2024-03-06T02:25:04;4.65;;;4.25;;
6665;SDS011;3369;49.906;8.598;2024-03-06T02:27:31;4.38;;;3.97;;
6665;SDS011;3369;49.906;8.598;2024-03-06T02:29:57;3.80;;;3.50;;
6665;SDS011;3369;49.906;8.598;2024-03-06T02:32:23;3.73;;;3.43;;
6665;SDS011;3369;49.906;8.598;2024-03-06T02:34:49;3.97;;;3.67;;
6665;SDS011;3369;49.906;8.598;2024-03-06T02:37:15;4.28;;;3.88;;
6665;SDS011;3369;49.906;8.598;2024-03-06T02:39:41;4.60;;;4.20;;
6665;SDS011;3369;49.906;8.598;2024-03-06T02:42:07;4.60;;;4.20;;
6665;SDS011;3369;49.906;8.598;2024-03-06T02:44:32;4.88;;;4.40;;
6665;SDS011;3369;49.906;8.598;2024-03-06T02:46:58;4.30;;;3.90;;
6665;SDS011;3369;49.906;8.598;2024-03-06T02:49:24;4.10;;;3.80;;
6665;SDS011;3369;49.906;8.598;2024-03-06T02:51:50;4.47;;;4.07;;
6665;SDS011;3369;49.906;8.598;2024-03-06T02:54:16;4.80;;;4.40;;
6665;SDS011;3369;49.906;8.598;2024-03-06T02:56:42;5.60;;;5.10;;
6665;SDS011;3369;49.906;8.598;2024-03-06T02:59:07;4.50;;;4.10;;
6665;SDS011;3369;49.906;8.598;2024-03-06T03:01:33;5.67;;;5.13;;
6665;SDS011;3369;49.906;8.598;2024-03-06T03:03:59;6.72;;;6.03;;
6665;SDS011;3369;49.906;8.598;2024-03-06T03:06:25;6.63;;;6.00;;
6665;SDS011;3369;49.906;8.598;2024-03-06T03:08:51;6.40;;;5.80;;
6665;SDS011;3369;49.906;8.598;2024-03-06T03:11:16;5.93;;;5.43;;
6665;SDS011;3369;49.906;8.598;2024-03-06T03:13:42;6.35;;;5.75;;
6665;SDS011;3369;49.906;8.598;2024-03-06T03:16:17;6.70;;;6.10;;
6665;SDS011;3369;49.906;8.598;2024-03-06T03:18:44;9.35;;;6.90;;
6665;SDS011;3369;49.906;8.598;2024-03-06T03:21:10;7.10;;;6.40;;
6665;SDS011;3369;49.906;8.598;2024-03-06T03:23:37;7.20;;;6.50;;
6665;SDS011;3369;49.906;8.598;2024-03-06T03:26:02;8.03;;;6.37;;
6665;SDS011;3369;49.906;8.598;2024-03-06T03:28:29;8.07;;;6.70;;
6665;SDS011;3369;49.906;8.598;2024-03-06T03:30:54;7.40;;;6.70;;
6665;SDS011;3369;49.906;8.598;2024-03-06T03:33:21;7.50;;;6.80;;
6665;SDS011;3369;49.906;8.598;2024-03-06T03:35:47;7.00;;;6.30;;
6665;SDS011;3369;49.906;8.598;2024-03-06T03:38:13;6.55;;;5.85;;
6665;SDS011;3369;49.906;8.598;2024-03-06T03:40:39;6.25;;;5.65;;
6665;SDS011;3369;49.906;8.598;2024-03-06T03:43:04;5.20;;;4.80;;
6665;SDS011;3369;49.906;8.598;2024-03-06T03:45:33;5.68;;;5.18;;
6665;SDS011;3369;49.906;8.598;2024-03-06T03:48:01;5.10;;;4.70;;
6665;SDS011;3369;49.906;8.598;2024-03-06T03:50:30;5.57;;;5.07;;
6665;SDS011;3369;49.906;8.598;2024-03-06T03:52:56;6.30;;;5.70;;
6665;SDS011;3369;49.906;8.598;2024-03-06T03:55:26;5.55;;;5.03;;
6665;SDS011;3369;49.906;8.598;2024-03-06T03:57:52;5.03;;;4.63;;
6665;SDS011;3369;49.906;8.598;2024-03-06T04:00:18;5.03;;;4.63;;
6665;SDS011;3369;49.906;8.598;2024-03-06T04:02:44;4.50;;;4.10;;
6665;SDS011;3369;49.906;8.598;2024-03-06T04:05:10;4.30;;;4.00;;
6665;SDS011;3369;49.906;8.598;2024-03-06T04:07:36;4.20;;;3.90;;
6665;SDS011;3369;49.906;8.598;2024-03-06T04:10:02;4.30;;;4.00;;
6665;SDS011;3369;49.906;8.598;2024-03-06T04:12:28;5.05;;;4.50;;
6665;SDS011;3369;49.906;8.598;2024-03-06T04:14:54;5.18;;;4.68;;
6665;SDS011;3369;49.906;8.598;2024-03-06T04:17:19;5.23;;;4.60;;
6665;SDS011;3369;49.906;8.598;2024-03-06T04:19:45;4.97;;;4.57;;
6665;SDS011;3369;49.906;8.598;2024-03-06T04:22:13;5.38;;;4.50;;
6665;SDS011;3369;49.906;8.598;2024-03-06T04:24:42;4.83;;;4.37;;
6665;SDS011;3369;49.906;8.598;2024-03-06T04:27:07;4.80;;;4.30;;
6665;SDS011;3369;49.906;8.598;2024-03-06T04:29:33;5.13;;;4.72;;
6665;SDS011;3369;49.906;8.598;2024-03-06T04:31:58;5.93;;;5.43;;
6665;SDS011;3369;49.906;8.598;2024-03-06T04:34:24;5.77;;;5.27;;
6665;SDS011;3369;49.906;8.598;2024-03-06T04:36:50;5.63;;;5.10;;
6665;SDS011;3369;49.906;8.598;2024-03-06T04:39:15;6.05;;;5.45;;
6665;SDS011;3369;49.906;8.598;2024-03-06T04:41:41;5.40;;;4.90;;
6665;SDS011;3369;49.906;8.598;2024-03-06T04:44:06;5.33;;;4.87;;
6665;SDS011;3369;49.906;8.598;2024-03-06T04:46:32;5.77;;;5.17;;
6665;SDS011;3369;49.906;8.598;2024-03-06T04:48:57;5.15;;;4.75;;
6665;SDS011;3369;49.906;8.598;2024-03-06T04:51:23;5.07;;;4.67;;
6665;SDS011;3369;49.906;8.598;2024-03-06T04:53:49;5.45;;;5.05;;
6665;SDS011;3369;49.906;8.598;2024-03-06T04:56:14;4.97;;;4.53;;
6665;SDS011;3369;49.906;8.598;2024-03-06T04:58:43;5.53;;;5.10;;
6665;SDS011;3369;49.906;8.598;2024-03-06T05:01:09;5.07;;;4.68;;
6665;SDS011;3369;49.906;8.598;2024-03-06T05:03:36;4.45;;;4.15;;
6665;SDS011;3369;49.906;8.598;2024-03-06T05:06:03;4.30;;;4.00;;
6665;SDS011;3369;49.906;8.598;2024-03-06T05:08:30;4.22;;;3.90;;
6665;SDS011;3369;49.906;8.598;2024-03-06T05:10:56;4.30;;;3.90;;
6665;SDS011;3369;49.906;8.598;2024-03-06T05:13:21;4.55;;;4.18;;
6665;SDS011;3369;49.906;8.598;2024-03-06T05:15:47;4.80;;;4.40;;
6665;SDS011;3369;49.906;8.598;2024-03-06T05:18:13;4.73;;;4.33;;
6665;SDS011;3369;49.906;8.598;2024-03-06T05:20:38;4.27;;;3.97;;
6665;SDS011;3369;49.906;8.598;2024-03-06T05:23:04;4.17;;;3.87;;
6665;SDS011;3369;49.906;8.598;2024-03-06T05:25:30;4.10;;;3.80;;
6665;SDS011;3369;49.906;8.598;2024-03-06T05:27:55;4.57;;;4.18;;
6665;SDS011;3369;49.906;8.598;2024-03-06T05:30:21;4.60;;;4.20;;
6665;SDS011;3369;49.906;8.598;2024-03-06T05:32:46;5.00;;;4.43;;
6665;SDS011;3369;49.906;8.598;2024-03-06T05:35:12;4.90;;;4.47;;
6665;SDS011;3369;49.906;8.598;2024-03-06T05:37:38;6.18;;;5.20;;
6665;SDS011;3369;49.906;8.598;2024-03-06T05:40:04;5.90;;;5.38;;
6665;SDS011;3369;49.906;8.598;2024-03-06T05:42:30;5.30;;;4.80;;
6665;SDS011;3369;49.906;8.598;2024-03-06T05:44:56;5.07;;;4.68;;
6665;SDS011;3369;49.906;8.598;2024-03-06T05:47:25;4.32;;;4.03;;
6665;SDS011;3369;49.906;8.598;2024-03-06T05:49:51;5.57;;;4.53;;
6665;SDS011;3369;49.906;8.598;2024-03-06T05:52:17;4.88;;;4.47;;
6665;SDS011;3369;49.906;8.598;2024-03-06T05:54:43;4.87;;;4.47;;
6665;SDS011;3369;49.906;8.598;2024-03-06T05:57:08;4.70;;;4.30;;
6665;SDS011;3369;49.906;8.598;2024-03-06T05:59:34;4.05;;;3.75;;
6665;SDS011;3369;49.906;8.598;2024-03-06T06:02:00;4.15;;;3.85;;
6665;SDS011;3369;49.906;8.598;2024-03-06T06:04:25;3.83;;;3.53;;
6665;SDS011;3369;49.906;8.598;2024-03-06T06:06:51;4.17;;;3.83;;
6665;SDS011;3369;49.906;8.598;2024-03-06T06:09:17;3.70;;;3.40;;
6665;SDS011;3369;49.906;8.598;2024-03-06T06:11:43;3.90;;;3.60;;
6665;SDS011;3369;49.906;8.598;2024-03-06T06:14:09;3.97;;;3.67;;
6665;SDS011;3369;49.906;8.598;2024-03-06T06:16:38;4.57;;;4.18;;
6665;SDS011;3369;49.906;8.598;2024-03-06T06:19:05;4.63;;;4.22;;
6665;SDS011;3369;49.906;8.598;2024-03-06T06:21:32;4.35;;;3.97;;
6665;SDS011;3369;49.906;8.598;2024-03-06T06:23:58;5.72;;;5.18;;
6665;SDS011;3369;49.906;8.598;2024-03-06T06:26:23;6.60;;;5.90;;
6665;SDS011;3369;49.906;8.598;2024-03-06T06:28:49;6.43;;;5.82;;
6665;SDS011;3369;49.906;8.598;2024-03-06T06:31:15;5.80;;;5.30;;
6665;SDS011;3369;49.906;8.598;2024-03-06T06:33:41;5.82;;;5.30;;
6665;SDS011;3369;49.906;8.598;2024-03-06T06:36:06;6.68;;;6.03;;
6665;SDS011;3369;49.906;8.598;2024-03-06T06:38:32;6.22;;;5.68;;
6665;SDS011;3369;49.906;8.598;2024-03-06T06:40:57;5.53;;;5.03;;
6665;SDS011;3369;49.906;8.598;2024-03-06T06:43:23;6.97;;;6.27;;
6665;SDS011;3369;49.906;8.598;2024-03-06T06:45:49;7.40;;;6.70;;
6665;SDS011;3369;49.906;8.598;2024-03-06T06:48:15;7.80;;;6.50;;
6665;SDS011;3369;49.906;8.598;2024-03-06T06:50:41;7.13;;;6.43;;
6665;SDS011;3369;49.906;8.598;2024-03-06T06:53:07;7.78;;;6.97;;
6665;SDS011;3369;49.906;8.598;2024-03-06T06:55:32;7.77;;;7.07;;
6665;SDS011;3369;49.906;8.598;2024-03-06T06:57:58;8.10;;;7.30;;
6665;SDS011;3369;49.906;8.598;2024-03-06T07:00:23;7.93;;;7.22;;
6665;SDS011;3369;49.906;8.598;2024-03-06T07:02:50;8.48;;;7.68;;
6665;SDS011;3369;49.906;8.598;2024-03-06T07:05:16;7.83;;;7.13;;
6665;SDS011;3369;49.906;8.598;2024-03-06T07:07:41;8.30;;;7.30;;
6665;SDS011;3369;49.906;8.598;2024-03-06T07:10:07;8.20;;;7.47;;
6665;SDS011;3369;49.906;8.598;2024-03-06T07:12:33;8.00;;;7.20;;
6665;SDS011;3369;49.906;8.598;2024-03-06T07:15:00;6.93;;;6.32;;
6665;SDS011;3369;49.906;8.598;2024-03-06T07:17:25;6.43;;;5.93;;
6665;SDS011;3369;49.906;8.598;2024-03-06T07:19:51;6.00;;;5.50;;
6665;SDS011;3369;49.906;8.598;2024-03-06T07:22:17;5.90;;;5.40;;
6665;SDS011;3369;49.906;8.598;2024-03-06T07:24:43;7.13;;;6.43;;
6665;SDS011;3369;49.906;8.598;2024-03-06T07:27:09;7.20;;;6.50;;
6665;SDS011;3369;49.906;8.598;2024-03-06T07:29:35;6.70;;;6.13;;
6665;SDS011;3369;49.906;8.598;2024-03-06T07:32:01;6.63;;;6.03;;
6665;SDS011;3369;49.906;8.598;2024-03-06T07:34:28;6.25;;;5.70;;
6665;SDS011;3369;49.906;8.598;2024-03-06T07:36:53;6.63;;;6.03;;
6665;SDS011;3369;49.906;8.598;2024-03-06T07:39:19;5.90;;;5.40;;
6665;SDS011;3369;49.906;8.598;2024-03-06T07:41:45;6.22;;;5.72;;
6665;SDS011;3369;49.906;8.598;2024-03-06T07:44:11;7.40;;;6.70;;
6665;SDS011;3369;49.906;8.598;2024-03-06T07:46:37;10.68;;;9.57;;
6665;SDS011;3369;49.906;8.598;2024-03-06T07:49:03;9.07;;;8.18;;
6665;SDS011;3369;49.906;8.598;2024-03-06T07:51:30;8.23;;;7.43;;
6665;SDS011;3369;49.906;8.598;2024-03-06T07:53:58;7.15;;;6.32;;
6665;SDS011;3369;49.906;8.598;2024-03-06T07:56:27;7.47;;;6.77;;
6665;SDS011;3369;49.906;8.598;2024-03-06T07:58:53;6.85;;;6.25;;
6665;SDS011;3369;49.906;8.598;2024-03-06T08:01:19;6.50;;;5.90;;
6665;SDS011;3369;49.906;8.598;2024-03-06T08:03:46;5.53;;;5.00;;
6665;SDS011;3369;49.906;8.598;2024-03-06T08:06:11;6.55;;;5.95;;
6665;SDS011;3369;49.906;8.598;2024-03-06T08:08:40;5.47;;;4.97;;
6665;SDS011;3369;49.906;8.598;2024-03-06T08:11:13;5.60;;;5.17;;
6665;SDS011;3369;49.906;8.598;2024-03-06T08:13:39;5.60;;;5.10;;
6665;SDS011;3369;49.906;8.598;2024-03-06T08:16:05;5.10;;;4.70;;
6665;SDS011;3369;49.906;8.598;2024-03-06T08:18:32;4.70;;;4.30;;
6665;SDS011;3369;49.906;8.598;2024-03-06T08:20:59;4.32;;;4.03;;
6665;SDS011;3369;49.906;8.598;2024-03-06T08:23:25;4.70;;;4.30;;
6665;SDS011;3369;49.906;8.598;2024-03-06T08:25:51;4.18;;;3.83;;
6665;SDS011;3369;49.906;8.598;2024-03-06T08:28:17;3.80;;;3.50;;
6665;SDS011;3369;49.906;8.598;2024-03-06T08:30:43;4.18;;;3.85;;
6665;SDS011;3369;49.906;8.598;2024-03-06T08:33:09;3.80;;;3.50;;
6665;SDS011;3369;49.906;8.598;2024-03-06T08:35:35;4.65;;;4.22;;
6665;SDS011;3369;49.906;8.598;2024-03-06T08:38:01;3.85;;;3.55;;
6665;SDS011;3369;49.906;8.598;2024-03-06T08:40:27;4.45;;;3.92;;
6665;SDS011;3369;49.906;8.598;2024-03-06T08:42:53;4.22;;;3.83;;
6665;SDS011;3369;49.906;8.598;2024-03-06T08:45:19;4.23;;;3.83;;
6665;SDS011;3369;49.906;8.598;2024-03-06T08:47:45;4.33;;;3.93;;
6665;SDS011;3369;49.906;8.598;2024-03-06T08:50:12;4.10;;;3.80;;
6665;SDS011;3369;49.906;8.598;2024-03-06T08:52:38;4.20;;;3.90;;
6665;SDS011;3369;49.906;8.598;2024-03-06T08:55:04;4.63;;;4.18;;
6665;SDS011;3369;49.906;8.598;2024-03-06T08:57:34;4.50;;;4.10;;
6665;SDS011;3369;49.906;8.598;2024-03-06T09:00:00;4.90;;;4.47;;
6665;SDS011;3369;49.906;8.598;2024-03-06T09:02:27;4.27;;;3.90;;
6665;SDS011;3369;49.906;8.598;2024-03-06T09:04:52;6.43;;;5.83;;
6665;SDS011;3369;49.906;8.598;2024-03-06T09:07:19;6.05;;;5.50;;
6665;SDS011;3369;49.906;8.598;2024-03-06T09:09:48;6.00;;;5.50;;
6665;SDS011;3369;49.906;8.598;2024-03-06T09:12:14;5.72;;;5.22;;
6665;SDS011;3369;49.906;8.598;2024-03-06T09:14:40;6.72;;;6.13;;
6665;SDS011;3369;49.906;8.598;2024-03-06T09:17:06;7.38;;;6.78;;
6665;SDS011;3369;49.906;8.598;2024-03-06T09:19:34;6.95;;;6.35;;
6665;SDS011;3369;49.906;8.598;2024-03-06T09:22:00;6.80;;;6.20;;
6665;SDS011;3369;49.906;8.598;2024-03-06T09:24:27;6.32;;;5.82;;
6665;SDS011;3369;49.906;8.598;2024-03-06T09:26:53;6.03;;;5.53;;
6665;SDS011;3369;49.906;8.598;2024-03-06T09:29:19;6.03;;;5.53;;
6665;SDS011;3369;49.906;8.598;2024-03-06T09:31:46;6.88;;;6.18;;
6665;SDS011;3369;49.906;8.598;2024-03-06T09:34:12;8.48;;;7.68;;
6665;SDS011;3369;49.906;8.598;2024-03-06T09:36:45;10.80;;;9.80;;
6665;SDS011;3369;49.906;8.598;2024-03-06T09:39:11;10.52;;;9.55;;
6665;SDS011;3369;49.906;8.598;2024-03-06T09:41:37;11.70;;;10.60;;
6665;SDS011;3369;49.906;8.598;2024-03-06T09:44:06;9.63;;;8.73;;
6665;SDS011;3369;49.906;8.598;2024-03-06T09:46:32;11.27;;;10.23;;
6665;SDS011;3369;49.906;8.598;2024-03-06T09:49:00;10.43;;;9.40;;
6665;SDS011;3369;49.906;8.598;2024-03-06T09:51:26;9.73;;;8.82;;
6665;SDS011;3369;49.906;8.598;2024-03-06T09:53:52;9.15;;;8.27;;
6665;SDS011;3369;49.906;8.598;2024-03-06T09:56:19;14.70;;;13.20;;
6665;SDS011;3369;49.906;8.598;2024-03-06T09:58:45;13.65;;;12.25;;
6665;SDS011;3369;49.906;8.598;2024-03-06T10:01:12;14.87;;;13.37;;
6665;SDS011;3369;49.906;8.598;2024-03-06T10:03:39;15.75;;;14.18;;
6665;SDS011;3369;49.906;8.598;2024-03-06T10:06:06;13.77;;;12.47;;
6665;SDS011;3369;49.906;8.598;2024-03-06T10:08:32;12.55;;;11.35;;
6665;SDS011;3369;49.906;8.598;2024-03-06T10:10:59;14.35;;;12.95;;
6665;SDS011;3369;49.906;8.598;2024-03-06T10:13:25;13.60;;;12.30;;
6665;SDS011;3369;49.906;8.598;2024-03-06T10:16:00;14.40;;;13.05;;
6665;SDS011;3369;49.906;8.598;2024-03-06T10:18:28;13.75;;;12.35;;
6665;SDS011;3369;49.906;8.598;2024-03-06T10:20:55;13.15;;;11.90;;
6665;SDS011;3369;49.906;8.598;2024-03-06T10:23:21;14.68;;;13.18;;
6665;SDS011;3369;49.906;8.598;2024-03-06T10:25:47;16.77;;;15.07;;
6665;SDS011;3369;49.906;8.598;2024-03-06T10:28:19;15.10;;;13.60;;
6665;SDS011;3369;49.906;8.598;2024-03-06T10:30:47;16.52;;;14.90;;
6665;SDS011;3369;49.906;8.598;2024-03-06T10:33:13;14.75;;;13.35;;
6665;SDS011;3369;49.906;8.598;2024-03-06T10:35:40;14.38;;;13.07;;
6665;SDS011;3369;49.906;8.598;2024-03-06T10:38:08;14.30;;;12.95;;
6665;SDS011;3369;49.906;8.598;2024-03-06T10:40:42;13.10;;;11.90;;
6665;SDS011;3369;49.906;8.598;2024-03-06T10:43:09;16.35;;;14.52;;
6665;SDS011;3369;49.906;8.598;2024-03-06T10:48:17;14.18;;;12.80;;
6665;SDS011;3369;49.906;8.598;2024-03-06T10:50:44;14.52;;;13.02;;
6665;SDS011;3369;49.906;8.598;2024-03-06T10:53:17;13.32;;;12.13;;
6665;SDS011;3369;49.906;8.598;2024-03-06T10:55:44;13.15;;;11.95;;
6665;SDS011;3369;49.906;8.598;2024-03-06T10:58:15;14.48;;;13.05;;
6665;SDS011;3369;49.906;8.598;2024-03-06T11:00:47;17.50;;;15.68;;
6665;SDS011;3369;49.906;8.598;2024-03-06T11:03:13;17.30;;;15.50;;
6665;SDS011;3369;49.906;8.598;2024-03-06T11:05:43;18.10;;;16.25;;
6665;SDS011;3369;49.906;8.598;2024-03-06T11:08:12;16.85;;;14.80;;
6665;SDS011;3369;49.906;8.598;2024-03-06T11:10:41;15.25;;;13.75;;
6665;SDS011;3369;49.906;8.598;2024-03-06T11:15:45;14.33;;;12.93;;
6665;SDS011;3369;49.906;8.598;2024-03-06T11:23:24;15.02;;;13.43;;
6665;SDS011;3369;49.906;8.598;2024-03-06T11:28:22;14.37;;;12.97;;
6665;SDS011;3369;49.906;8.598;2024-03-06T11:30:55;12.48;;;11.27;;
6665;SDS011;3369;49.906;8.598;2024-03-06T11:33:38;11.52;;;10.40;;
6665;SDS011;3369;49.906;8.598;2024-03-06T11:41:25;11.43;;;10.32;;
6665;SDS011;3369;49.906;8.598;2024-03-06T11:43:52;9.70;;;8.80;;
6665;SDS011;3369;49.906;8.598;2024-03-06T11:46:19;8.82;;;8.00;;
6665;SDS011;3369;49.906;8.598;2024-03-06T11:48:52;11.45;;;10.25;;
6665;SDS011;3369;49.906;8.598;2024-03-06T11:51:21;11.83;;;10.63;;
6665;SDS011;3369;49.906;8.598;2024-03-06T11:53:51;13.03;;;11.70;;
6665;SDS011;3369;49.906;8.598;2024-03-06T11:56:18;12.45;;;11.15;;
6665;SDS011;3369;49.906;8.598;2024-03-06T11:58:45;11.90;;;10.67;;
6665;SDS011;3369;49.906;8.598;2024-03-06T12:01:11;12.55;;;11.25;;
6665;SDS011;3369;49.906;8.598;2024-03-06T12:03:36;12.32;;;11.02;;
6665;SDS011;3369;49.906;8.598;2024-03-06T12:06:02;13.27;;;11.90;;
6665;SDS011;3369;49.906;8.598;2024-03-06T12:08:28;13.00;;;11.70;;
6665;SDS011;3369;49.906;8.598;2024-03-06T12:10:54;13.45;;;12.15;;
6665;SDS011;3369;49.906;8.598;2024-03-06T12:13:23;13.27;;;11.98;;
6665;SDS011;3369;49.906;8.598;2024-03-06T12:15:49;13.70;;;12.32;;
6665;SDS011;3369;49.906;8.598;2024-03-06T12:18:18;12.73;;;11.43;;
6665;SDS011;3369;49.906;8.598;2024-03-06T12:20:45;13.55;;;12.15;;
6665;SDS011;3369;49.906;8.598;2024-03-06T12:23:23;13.27;;;11.88;;
6665;SDS011;3369;49.906;8.598;2024-03-06T12:25:51;12.82;;;11.52;;
6665;SDS011;3369;49.906;8.598;2024-03-06T12:28:28;11.90;;;10.65;;
6665;SDS011;3369;49.906;8.598;2024-03-06T12:30:53;12.95;;;11.65;;
6665;SDS011;3369;49.906;8.598;2024-03-06T12:33:19;11.65;;;10.48;;
6665;SDS011;3369;49.906;8.598;2024-03-06T12:35:45;13.55;;;12.15;;
6665;SDS011;3369;49.906;8.598;2024-03-06T12:38:11;14.10;;;12.70;;
6665;SDS011;3369;49.906;8.598;2024-03-06T12:40:41;14.80;;;13.20;;
6665;SDS011;3369;49.906;8.598;2024-03-06T12:43:07;14.93;;;13.40;;
6665;SDS011;3369;49.906;8.598;2024-03-06T12:45:34;13.48;;;12.10;;
6665;SDS011;3369;49.906;8.598;2024-03-06T12:48:01;15.23;;;13.63;;
6665;SDS011;3369;49.906;8.598;2024-03-06T12:50:27;14.88;;;13.25;;
6665;SDS011;3369;49.906;8.598;2024-03-06T12:52:53;15.70;;;14.00;;
6665;SDS011;3369;49.906;8.598;2024-03-06T12:55:19;15.00;;;13.48;;
6665;SDS011;3369;49.906;8.598;2024-03-06T12:57:45;15.43;;;13.80;;
6665;SDS011;3369;49.906;8.598;2024-03-06T13:00:11;13.50;;;12.10;;
6665;SDS011;3369;49.906;8.598;2024-03-06T13:02:43;11.77;;;10.63;;
6665;SDS011;3369;49.906;8.598;2024-03-06T13:05:10;13.07;;;11.77;;
6665;SDS011;3369;49.906;8.598;2024-03-06T13:07:36;13.48;;;12.07;;
6665;SDS011;3369;49.906;8.598;2024-03-06T13:10:02;11.40;;;10.30;;
6665;SDS011;3369;49.906;8.598;2024-03-06T13:12:28;11.93;;;10.77;;
6665;SDS011;3369;49.906;8.598;2024-03-06T13:14:54;13.37;;;12.03;;
6665;SDS011;3369;49.906;8.598;2024-03-06T13:17:20;13.02;;;11.68;;
6665;SDS011;3369;49.906;8.598;2024-03-06T13:19:46;10.83;;;9.67;;
6665;SDS011;3369;49.906;8.598;2024-03-06T13:22:14;13.80;;;12.40;;
6665;SDS011;3369;49.906;8.598;2024-03-06T13:24:40;14.65;;;13.15;;
6665;SDS011;3369;49.906;8.598;2024-03-06T13:27:05;12.73;;;11.43;;
6665;SDS011;3369;49.906;8.598;2024-03-06T13:29:31;14.18;;;12.73;;
6665;SDS011;3369;49.906;8.598;2024-03-06T13:31:57;15.82;;;14.13;;
6665;SDS011;3369;49.906;8.598;2024-03-06T13:34:23;15.57;;;13.98;;
6665;SDS011;3369;49.906;8.598;2024-03-06T13:36:48;16.98;;;15.18;;
6665;SDS011;3369;49.906;8.598;2024-03-06T13:39:14;16.80;;;14.73;;
6665;SDS011;3369;49.906;8.598;2024-03-06T13:41:40;19.30;;;16.33;;
6665;SDS011;3369;49.906;8.598;2024-03-06T13:44:05;16.67;;;14.98;;
6665;SDS011;3369;49.906;8.598;2024-03-06T13:46:33;16.10;;;14.40;;
6665;SDS011;3369;49.906;8.598;2024-03-06T13:48:59;17.52;;;14.80;;
6665;SDS011;3369;49.906;8.598;2024-03-06T13:51:25;15.73;;;14.13;;
6665;SDS011;3369;49.906;8.598;2024-03-06T13:53:51;16.07;;;14.37;;
6665;SDS011;3369;49.906;8.598;2024-03-06T13:56:17;16.58;;;14.77;;
6665;SDS011;3369;49.906;8.598;2024-03-06T13:58:43;15.47;;;13.83;;
6665;SDS011;3369;49.906;8.598;2024-03-06T14:01:09;15.90;;;14.20;;
6665;SDS011;3369;49.906;8.598;2024-03-06T14:03:35;16.30;;;14.30;;
6665;SDS011;3369;49.906;8.598;2024-03-06T14:06:03;15.90;;;14.20;;
6665;SDS011;3369;49.906;8.598;2024-03-06T14:08:29;14.98;;;13.38;;
6665;SDS011;3369;49.906;8.598;2024-03-06T14:10:55;17.27;;;14.65;;
6665;SDS011;3369;49.906;8.598;2024-03-06T14:13:20;16.27;;;14.57;;
6665;SDS011;3369;49.906;8.598;2024-03-06T14:15:46;16.67;;;14.67;;
6665;SDS011;3369;49.906;8.598;2024-03-06T14:18:14;15.65;;;13.95;;
6665;SDS011;3369;49.906;8.598;2024-03-06T14:20:40;16.23;;;14.53;;
6665;SDS011;3369;49.906;8.598;2024-03-06T14:23:05;16.10;;;14.45;;
6665;SDS011;3369;49.906;8.598;2024-03-06T14:25:32;12.95;;;11.65;;
6665;SDS011;3369;49.906;8.598;2024-03-06T14:28:03;12.20;;;10.90;;
6665;SDS011;3369;49.906;8.598;2024-03-06T14:30:29;14.82;;;13.25;;
6665;SDS011;3369;49.906;8.598;2024-03-06T14:32:55;16.05;;;14.32;;
6665;SDS011;3369;49.906;8.598;2024-03-06T14:35:20;15.40;;;13.77;;
6665;SDS011;3369;49.906;8.598;2024-03-06T14:37:46;13.87;;;12.40;;
6665;SDS011;3369;49.906;8.598;2024-03-06T14:40:13;14.57;;;11.88;;
6665;SDS011;3369;49.906;8.598;2024-03-06T14:42:39;14.00;;;12.50;;
6665;SDS011;3369;49.906;8.598;2024-03-06T14:45:05;13.63;;;12.23;;
6665;SDS011;3369;49.906;8.598;2024-03-06T14:47:33;14.00;;;12.57;;
6665;SDS011;3369;49.906;8.598;2024-03-06T14:49:59;13.07;;;11.70;;
6665;SDS011;3369;49.906;8.598;2024-03-06T14:52:24;13.23;;;11.87;;
6665;SDS011;3369;49.906;8.598;2024-03-06T14:54:51;13.23;;;11.40;;
6665;SDS011;3369;49.906;8.598;2024-03-06T14:57:16;11.57;;;10.40;;
6665;SDS011;3369;49.906;8.598;2024-03-06T14:59:42;13.33;;;11.93;;
6665;SDS011;3369;49.906;8.598;2024-03-06T15:02:08;12.37;;;11.07;;
6665;SDS011;3369;49.906;8.598;2024-03-06T15:04:33;11.40;;;10.30;;
6665;SDS011;3369;49.906;8.598;2024-03-06T15:06:59;10.35;;;9.32;;
6665;SDS011;3369;49.906;8.598;2024-03-06T15:09:25;9.57;;;8.63;;
6665;SDS011;3369;49.906;8.598;2024-03-06T15:11:51;11.18;;;10.07;;
6665;SDS011;3369;49.906;8.598;2024-03-06T15:14:20;9.40;;;8.35;;
6665;SDS011;3369;49.906;8.598;2024-03-06T15:16:45;11.13;;;10.02;;
6665;SDS011;3369;49.906;8.598;2024-03-06T15:19:11;12.00;;;10.80;;